Time,TemperatureF,DewpointF,PressureIn,WindDirection,WindDirectionDegrees,WindSpeedMPH,WindSpeedGustMPH,Humidity,HourlyPrecipIn,Conditions,Clouds,dailyrainin,SolarRadiationWatts/m^2,SoftwareType,DateUTC
2013-05-14 00:01:00,48.0,35.0,-100.00,West,259,12.0,33.0,61,0.00,,,0.03,0.000000,,2013-05-14 06:01:00,
2013-05-14 00:32:00,47.0,31.0,-100.00,West,259,13.0,27.0,53,0.00,,,0.03,0.000000,,2013-05-14 06:32:00,
2013-05-14 00:42:00,47.0,31.0,-100.00,West,259,13.0,27.0,53,0.00,,,0.03,0.000000,,2013-05-14 06:42:00,
2013-05-14 00:52:00,47.0,31.0,-100.00,West,259,13.0,27.0,53,0.00,,,0.03,0.000000,,2013-05-14 06:52:00,
2013-05-14 01:01:00,47.0,31.0,-100.00,West,259,13.0,27.0,53,0.00,,,0.03,0.000000,,2013-05-14 07:01:00,
2013-05-14 01:32:00,47.0,29.0,-100.00,SW,219,9.0,33.0,50,0.00,,,0.03,0.000000,,2013-05-14 07:32:00,
2013-05-14 01:42:00,47.0,29.0,-100.00,SW,219,9.0,33.0,50,0.00,,,0.03,0.000000,,2013-05-14 07:42:00,
2013-05-14 01:52:00,47.0,29.0,-100.00,SW,219,9.0,33.0,50,0.00,,,0.03,0.000000,,2013-05-14 07:52:00,
2013-05-14 02:02:00,47.0,29.0,-100.00,SW,219,9.0,33.0,50,0.00,,,0.03,0.000000,,2013-05-14 08:02:00,
2013-05-14 02:32:00,46.0,28.0,-100.00,SSW,205,10.0,26.0,49,0.00,,,0.03,0.000000,,2013-05-14 08:32:00,
2013-05-14 02:42:00,46.0,28.0,-100.00,SSW,205,10.0,26.0,49,0.00,,,0.03,0.000000,,2013-05-14 08:42:00,
2013-05-14 02:52:00,46.0,28.0,-100.00,SSW,205,10.0,26.0,49,0.00,,,0.03,0.000000,,2013-05-14 08:52:00,
2013-05-14 03:01:00,46.0,28.0,-100.00,SSW,205,10.0,26.0,49,0.00,,,0.03,0.000000,,2013-05-14 09:01:00,
2013-05-14 03:32:00,45.0,27.0,-100.00,WSW,248,9.0,22.0,50,0.00,,,-99.99,0.000000,,2013-05-14 09:32:00,
2013-05-14 03:44:00,45.0,27.0,-100.00,WSW,248,9.0,22.0,50,0.00,,,-99.99,0.000000,,2013-05-14 09:44:00,
2013-05-14 03:54:00,45.0,27.0,-100.00,WSW,248,9.0,22.0,50,0.00,,,-99.99,0.000000,,2013-05-14 09:54:00,
2013-05-14 04:04:00,45.0,27.0,-100.00,WSW,248,9.0,22.0,50,0.00,,,-99.99,0.000000,,2013-05-14 10:04:00,
2013-05-14 04:33:00,44.0,28.0,-100.00,SW,215,4.0,22.0,54,0.00,,,0.03,0.000000,,2013-05-14 10:33:00,
2013-05-14 04:42:00,44.0,28.0,-100.00,SW,215,4.0,22.0,54,0.00,,,0.03,0.000000,,2013-05-14 10:42:00,
2013-05-14 04:52:00,44.0,28.0,-100.00,SW,215,4.0,22.0,54,0.00,,,0.03,0.000000,,2013-05-14 10:52:00,
2013-05-14 05:02:00,44.0,28.0,-100.00,SW,215,4.0,22.0,54,0.00,,,0.03,0.000000,,2013-05-14 11:02:00,
2013-05-14 05:32:00,44.0,29.0,-100.00,West,263,3.0,18.0,55,0.00,,,0.03,0.000000,,2013-05-14 11:32:00,
2013-05-14 05:43:00,44.0,29.0,-100.00,West,263,3.0,18.0,55,0.00,,,0.03,0.000000,,2013-05-14 11:43:00,
2013-05-14 05:53:00,44.0,29.0,-100.00,West,263,3.0,18.0,55,0.00,,,0.03,0.000000,,2013-05-14 11:53:00,
2013-05-14 06:02:00,44.0,29.0,-100.00,West,263,3.0,18.0,55,0.00,,,0.03,0.000000,,2013-05-14 12:02:00,
2013-05-14 06:32:00,44.0,31.0,-100.00,WSW,245,8.0,15.0,60,0.00,,,0.03,1.000000,,2013-05-14 12:32:00,
2013-05-14 06:42:00,44.0,31.0,-100.00,WSW,245,8.0,15.0,60,0.00,,,0.03,1.000000,,2013-05-14 12:42:00,
2013-05-14 06:52:00,44.0,31.0,-100.00,WSW,245,8.0,15.0,60,0.00,,,0.03,1.000000,,2013-05-14 12:52:00,
2013-05-14 07:01:00,44.0,31.0,-100.00,WSW,245,8.0,15.0,60,0.00,,,0.03,1.000000,,2013-05-14 13:01:00,
2013-05-14 08:32:00,44.0,30.0,-100.00,West,266,14.0,25.0,57,-99.99,,,0.03,206.000000,,2013-05-14 14:32:00,
2013-05-14 08:42:00,44.0,30.0,-100.00,West,266,14.0,25.0,57,-99.99,,,0.03,206.000000,,2013-05-14 14:42:00,
2013-05-14 08:52:00,44.0,30.0,-100.00,West,266,14.0,25.0,57,-99.99,,,0.03,206.000000,,2013-05-14 14:52:00,
2013-05-14 09:01:00,44.0,30.0,-100.00,West,266,14.0,25.0,57,-99.99,,,0.03,206.000000,,2013-05-14 15:01:00,
2013-05-14 09:33:00,46.0,30.0,-100.00,West,272,13.0,23.0,54,0.00,,,0.03,454.000000,,2013-05-14 15:33:00,
2013-05-14 09:43:00,46.0,30.0,-100.00,West,272,13.0,23.0,54,0.00,,,0.03,454.000000,,2013-05-14 15:43:00,
2013-05-14 09:53:00,46.0,30.0,-100.00,West,272,13.0,23.0,54,0.00,,,0.03,454.000000,,2013-05-14 15:53:00,
2013-05-14 10:02:00,46.0,30.0,-100.00,West,272,13.0,23.0,54,0.00,,,0.03,454.000000,,2013-05-14 16:02:00,
2013-05-14 10:33:00,50.0,32.0,-100.00,WNW,283,11.0,17.0,50,0.00,,,0.03,628.000000,,2013-05-14 16:33:00,
2013-05-14 10:44:00,50.0,32.0,-100.00,WNW,283,11.0,17.0,50,0.00,,,0.03,628.000000,,2013-05-14 16:44:00,
2013-05-14 10:54:00,50.0,32.0,-100.00,WNW,283,11.0,17.0,50,0.00,,,0.03,628.000000,,2013-05-14 16:54:00,
2013-05-14 11:03:00,50.0,32.0,-100.00,WNW,283,11.0,17.0,50,0.00,,,0.03,628.000000,,2013-05-14 17:03:00,
2013-05-14 11:33:00,52.0,29.0,-100.00,WNW,285,12.0,19.0,41,0.00,,,0.03,800.000000,,2013-05-14 17:33:00,
2013-05-14 11:43:00,52.0,29.0,-100.00,WNW,285,12.0,19.0,41,0.00,,,0.03,800.000000,,2013-05-14 17:43:00,
2013-05-14 11:52:00,52.0,29.0,-100.00,WNW,285,12.0,19.0,41,0.00,,,0.03,800.000000,,2013-05-14 17:52:00,
2013-05-14 12:01:00,52.0,29.0,-100.00,WNW,285,12.0,19.0,41,0.00,,,0.03,800.000000,,2013-05-14 18:01:00,
2013-05-14 12:32:00,55.0,31.0,-100.00,WNW,284,16.0,22.0,39,0.00,,,-99.99,928.000000,,2013-05-14 18:32:00,
2013-05-14 12:42:00,55.0,31.0,-100.00,WNW,284,16.0,22.0,39,0.00,,,-99.99,928.000000,,2013-05-14 18:42:00,
2013-05-14 12:52:00,55.0,31.0,-100.00,WNW,284,16.0,22.0,39,0.00,,,-99.99,928.000000,,2013-05-14 18:52:00,
2013-05-14 13:01:00,55.0,31.0,-100.00,WNW,284,16.0,22.0,39,0.00,,,-99.99,928.000000,,2013-05-14 19:01:00,
2013-05-14 13:32:00,58.0,31.0,-100.00,WNW,294,12.0,20.0,35,0.00,,,0.03,982.000000,,2013-05-14 19:32:00,
2013-05-14 13:42:00,58.0,31.0,-100.00,WNW,294,12.0,20.0,35,0.00,,,0.03,982.000000,,2013-05-14 19:42:00,
2013-05-14 13:52:00,58.0,31.0,-100.00,WNW,294,12.0,20.0,35,0.00,,,0.03,982.000000,,2013-05-14 19:52:00,
2013-05-14 14:02:00,58.0,31.0,-100.00,WNW,294,12.0,20.0,35,0.00,,,0.03,982.000000,,2013-05-14 20:02:00,
2013-05-14 14:33:00,60.0,28.0,-100.00,WNW,292,15.0,23.0,29,0.00,,,0.03,1032.000000,,2013-05-14 20:33:00,
2013-05-14 14:44:00,60.0,28.0,-100.00,WNW,292,15.0,23.0,29,0.00,,,0.03,1032.000000,,2013-05-14 20:44:00,
2013-05-14 14:52:00,60.0,28.0,-100.00,WNW,292,15.0,23.0,29,0.00,,,0.03,1032.000000,,2013-05-14 20:52:00,
2013-05-14 15:03:00,60.0,28.0,-100.00,WNW,292,15.0,23.0,29,0.00,,,0.03,1032.000000,,2013-05-14 21:03:00,
2013-05-14 16:34:00,63.0,29.0,-100.00,WNW,288,16.0,24.0,28,-99.99,,,0.03,925.000000,,2013-05-14 22:34:00,
2013-05-14 16:45:00,63.0,29.0,-100.00,WNW,288,16.0,24.0,28,-99.99,,,0.03,925.000000,,2013-05-14 22:45:00,
2013-05-14 16:54:00,63.0,29.0,-100.00,WNW,288,16.0,24.0,28,-99.99,,,0.03,925.000000,,2013-05-14 22:54:00,
2013-05-14 17:03:00,63.0,29.0,-100.00,WNW,288,16.0,24.0,28,-99.99,,,0.03,925.000000,,2013-05-14 23:03:00,
2013-05-14 17:32:00,63.0,31.0,-100.00,WNW,282,17.0,23.0,30,0.00,,,0.03,828.000000,,2013-05-14 23:32:00,
2013-05-14 17:44:00,63.0,31.0,-100.00,WNW,282,17.0,23.0,30,0.00,,,0.03,828.000000,,2013-05-14 23:44:00,
2013-05-14 17:52:00,63.0,31.0,-100.00,WNW,282,17.0,23.0,30,0.00,,,0.03,828.000000,,2013-05-14 23:52:00,
2013-05-14 18:01:00,63.0,31.0,-100.00,WNW,282,17.0,23.0,30,0.00,,,0.03,828.000000,,2013-05-15 00:01:00,
2013-05-14 19:32:00,59.0,35.0,-100.00,West,279,18.0,24.0,40,-99.99,,,0.03,325.000000,,2013-05-15 01:32:00,
2013-05-14 19:42:00,59.0,35.0,-100.00,West,279,18.0,24.0,40,-99.99,,,0.03,325.000000,,2013-05-15 01:42:00,
2013-05-14 19:52:00,59.0,35.0,-100.00,West,279,18.0,24.0,40,-99.99,,,0.03,325.000000,,2013-05-15 01:52:00,
2013-05-14 20:01:00,59.0,35.0,-100.00,West,279,18.0,24.0,40,-99.99,,,0.03,325.000000,,2013-05-15 02:01:00,
2013-05-14 20:32:00,55.0,33.0,-100.00,West,273,18.0,26.0,43,0.00,,,0.00,156.000000,,2013-05-15 02:32:00,
2013-05-14 20:42:00,55.0,33.0,-100.00,West,273,18.0,26.0,43,0.00,,,0.00,156.000000,,2013-05-15 02:42:00,
2013-05-14 20:52:00,55.0,33.0,-100.00,West,273,18.0,26.0,43,0.00,,,0.00,156.000000,,2013-05-15 02:52:00,
2013-05-14 21:01:00,55.0,33.0,-100.00,West,273,18.0,26.0,43,0.00,,,0.00,156.000000,,2013-05-15 03:01:00,
2013-05-14 21:33:00,52.0,34.0,-100.00,West,267,15.0,25.0,50,0.00,,,0.00,20.000000,,2013-05-15 03:33:00,
2013-05-14 21:44:00,52.0,34.0,-100.00,West,267,15.0,25.0,50,0.00,,,0.00,20.000000,,2013-05-15 03:44:00,
2013-05-14 21:54:00,52.0,34.0,-100.00,West,267,15.0,25.0,50,0.00,,,0.00,20.000000,,2013-05-15 03:54:00,
2013-05-14 22:03:00,52.0,34.0,-100.00,West,267,15.0,25.0,50,0.00,,,0.00,20.000000,,2013-05-15 04:03:00,
2013-05-14 22:33:00,50.0,34.0,-100.00,West,265,12.0,26.0,53,0.00,,,0.00,0.000000,,2013-05-15 04:33:00,
2013-05-14 22:43:00,50.0,34.0,-100.00,West,265,12.0,26.0,53,0.00,,,0.00,0.000000,,2013-05-15 04:43:00,
2013-05-14 22:52:00,50.0,34.0,-100.00,West,265,12.0,26.0,53,0.00,,,0.00,0.000000,,2013-05-15 04:52:00,
2013-05-14 23:02:00,50.0,34.0,-100.00,West,265,12.0,26.0,53,0.00,,,0.00,0.000000,,2013-05-15 05:02:00,
2013-05-14 23:32:00,49.0,35.0,-100.00,West,269,12.0,20.0,58,0.00,,,0.00,0.000000,,2013-05-15 05:32:00,
2013-05-14 23:42:00,49.0,35.0,-100.00,West,269,12.0,20.0,58,0.00,,,0.00,0.000000,,2013-05-15 05:42:00,
2013-05-14 23:52:00,49.0,35.0,-100.00,West,269,12.0,20.0,58,0.00,,,0.00,0.000000,,2013-05-15 05:52:00,